»·PEaware :: N8BM KBUR-KPTV

N8BM :: KBUR-KPTV

FLIGHT INFORMATION

Flight Status: Arrived
Operator: Privately registered:
United States
More flights under this callsign
Pilot: Brad M. (22842)
Aircraft: SOCATA TBM-900
(TBM9)
More flights by this aircraft type
Origin: KBUR Bob Hope-Burbank
United States
Destination: KPTV Porterville Mun
United States
More flights between these airports :: More routes between these airports
Route: VNY3 GMN EHF
File this flight plan on PilotEdge
Remarks:
Altitude:
(Current/Filed)
22,000ft
Speed:
(Current/Filed)
309kts
Departed: 19-Sep-19 02:37 PM
Arrived: 19-Sep-19 03:13 PM
Distance/Time
Traveled:
115nm/0:36
Distance/Time
To Go:
Arrived

Flight Plot

Page will automatically refresh every two minutes.

Flight plan parsing failed; only flown route is shown


Map Options




Map Legend


Flown Route
Filed Route
Departure Airport
Arrival Airport
Navaid (VOR, NDB)
Fix

Horizontal Profiles

Position Reports

Time Latitude Longitude Heading Altitude Ground
Speed
19-Sep-19 14:02 34.199715 -118.360008 266 779ft 0kts
19-Sep-19 14:03 34.199715 -118.360008 266 779ft 0kts
19-Sep-19 14:04 34.199715 -118.360008 266 779ft 0kts
19-Sep-19 14:05 34.199715 -118.360008 266 779ft 0kts
19-Sep-19 14:06 34.199715 -118.360008 266 779ft 0kts
19-Sep-19 14:07 34.199715 -118.360008 266 779ft 0kts
19-Sep-19 14:08 34.199715 -118.360008 266 779ft 0kts
19-Sep-19 14:09 34.199715 -118.360008 266 779ft 0kts
19-Sep-19 14:10 34.199715 -118.360008 266 779ft 0kts
19-Sep-19 14:11 34.199715 -118.360008 266 779ft 0kts
19-Sep-19 14:12 34.199715 -118.360008 266 779ft 0kts
19-Sep-19 14:13 34.199715 -118.360008 266 779ft 0kts
19-Sep-19 14:14 34.199715 -118.360008 266 779ft 0kts
19-Sep-19 14:15 34.199715 -118.360008 266 779ft 0kts
19-Sep-19 14:16 34.199715 -118.360008 266 779ft 0kts
19-Sep-19 14:17 34.199715 -118.360008 266 779ft 0kts
19-Sep-19 14:19 34.199715 -118.360008 266 779ft 0kts
19-Sep-19 14:20 34.199715 -118.360008 266 779ft 0kts
19-Sep-19 14:21 34.199715 -118.360008 266 779ft 0kts
19-Sep-19 14:22 34.199715 -118.360008 266 779ft 0kts
19-Sep-19 14:23 34.199715 -118.360008 266 779ft 0kts
19-Sep-19 14:24 34.199715 -118.360008 266 779ft 0kts
19-Sep-19 14:25 34.199715 -118.360008 266 779ft 0kts
19-Sep-19 14:26 34.199715 -118.360008 266 779ft 0kts
19-Sep-19 14:27 34.199715 -118.360008 266 779ft 0kts
19-Sep-19 14:28 34.199715 -118.360008 266 779ft 0kts
19-Sep-19 14:29 34.199715 -118.360008 266 779ft 0kts
19-Sep-19 14:30 34.199715 -118.360008 266 779ft 0kts
19-Sep-19 14:31 34.199715 -118.360008 266 779ft 0kts
19-Sep-19 14:32 34.199523 -118.359594 90 779ft 8kts
19-Sep-19 14:33 34.200830 -118.358438 348 779ft 12kts
19-Sep-19 14:34 34.204355 -118.359406 347 779ft 9kts
19-Sep-19 14:35 34.207875 -118.360369 346 779ft 11kts
19-Sep-19 14:36 34.210584 -118.361126 346 779ft 8kts
19-Sep-19 14:36 34.209292 -118.359644 167 779ft 65kts
19-Sep-19 14:38 34.175104 -118.375451 225 2060ft 167kts
19-Sep-19 14:39 34.140416 -118.418543 225 3506ft 183kts
19-Sep-19 14:39 34.143147 -118.461771 311 4784ft 187kts
19-Sep-19 14:41 34.189379 -118.510304 322 7042ft 190kts
19-Sep-19 14:41 34.225181 -118.541824 321 8537ft 192kts
19-Sep-19 14:42 34.268525 -118.580052 319 10181ft 192kts
19-Sep-19 14:44 34.320695 -118.621900 330 12164ft 197kts
19-Sep-19 14:44 34.363403 -118.642912 329 13453ft 200kts
19-Sep-19 14:45 34.414467 -118.668105 328 14851ft 203kts
19-Sep-19 14:46 34.467159 -118.694115 328 16120ft 206kts
19-Sep-19 14:47 34.520372 -118.720428 327 17245ft 208kts
19-Sep-19 14:49 34.583409 -118.751655 326 18405ft 211kts
19-Sep-19 14:49 34.630014 -118.774766 326 19649ft 217kts
19-Sep-19 14:50 34.686412 -118.802798 326 21106ft 222kts
19-Sep-19 14:51 34.745329 -118.832170 327 21943ft 244kts
19-Sep-19 14:52 34.813641 -118.864704 334 21973ft 280kts
19-Sep-19 14:53 34.888422 -118.890418 334 22009ft 287kts
19-Sep-19 14:54 34.966056 -118.917171 334 22003ft 290kts
19-Sep-19 14:55 35.045157 -118.944532 334 19974ft 302kts
19-Sep-19 14:56 35.124324 -118.971890 334 17788ft 289kts
19-Sep-19 14:57 35.200253 -118.998269 335 15780ft 282kts
19-Sep-19 14:58 35.278013 -119.010674 349 14005ft 283kts
19-Sep-19 14:59 35.355797 -119.016075 350 12446ft 278kts
19-Sep-19 15:00 35.432196 -119.021356 351 11009ft 273kts
19-Sep-19 15:01 35.507628 -119.026547 353 9768ft 270kts
19-Sep-19 15:02 35.582101 -119.031647 355 8706ft 266kts
19-Sep-19 15:03 35.655240 -119.036687 355 7974ft 252kts
19-Sep-19 15:04 35.724163 -119.041500 355 6543ft 245kts
19-Sep-19 15:05 35.791996 -119.046206 355 5160ft 241kts
19-Sep-19 15:06 35.855280 -119.044417 6 4495ft 215kts
19-Sep-19 15:07 35.912560 -119.029570 13 3543ft 202kts
19-Sep-19 15:08 35.958586 -119.017304 2 2409ft 147kts
19-Sep-19 15:09 35.992097 -119.022218 337 1583ft 93kts
19-Sep-19 15:10 36.011528 -119.040419 310 940ft 82kts
19-Sep-19 15:11 36.027266 -119.059871 314 439ft 61kts
19-Sep-19 15:12 36.029190 -119.059669 46 439ft 4kts
19-Sep-19 15:13 36.029329 -119.059312 134 439ft 0kts
19-Sep-19 15:14 36.029329 -119.059312 134 439ft 0kts
19-Sep-19 15:15 36.029329 -119.059312 134 439ft 0kts
19-Sep-19 15:16 36.029329 -119.059312 134 439ft 0kts
19-Sep-19 15:17 36.029329 -119.059312 134 439ft 0kts
19-Sep-19 15:18 36.029329 -119.059312 134 439ft 0kts

Navigation Log

Ident Type
Flight plan parsing failed, navigation log unavailable